sensor_id;sensor_type;location;lat;lon;timestamp;temperature;humidity
14097;DHT22;7125;48.106;11.544;2022-10-16T00:01:42;11.40;99.90
14097;DHT22;7125;48.106;11.544;2022-10-16T00:04:09;11.40;99.90
14097;DHT22;7125;48.106;11.544;2022-10-16T00:06:36;11.40;99.90
14097;DHT22;7125;48.106;11.544;2022-10-16T00:09:03;11.40;99.90
14097;DHT22;7125;48.106;11.544;2022-10-16T00:11:33;11.40;99.90
14097;DHT22;7125;48.106;11.544;2022-10-16T00:14:05;11.40;99.90
14097;DHT22;7125;48.106;11.544;2022-10-16T00:16:34;11.40;99.90
14097;DHT22;7125;48.106;11.544;2022-10-16T00:19:01;11.30;99.90
14097;DHT22;7125;48.106;11.544;2022-10-16T00:21:29;11.30;99.90
14097;DHT22;7125;48.106;11.544;2022-10-16T00:23:59;11.30;99.90
14097;DHT22;7125;48.106;11.544;2022-10-16T00:26:27;11.30;99.90
14097;DHT22;7125;48.106;11.544;2022-10-16T00:28:54;11.20;99.90
14097;DHT22;7125;48.106;11.544;2022-10-16T00:31:23;11.30;99.90
14097;DHT22;7125;48.106;11.544;2022-10-16T00:33:50;11.20;99.90
14097;DHT22;7125;48.106;11.544;2022-10-16T00:36:19;11.20;99.90
14097;DHT22;7125;48.106;11.544;2022-10-16T00:38:46;11.20;99.90
14097;DHT22;7125;48.106;11.544;2022-10-16T00:41:16;11.10;99.90
14097;DHT22;7125;48.106;11.544;2022-10-16T00:43:45;11.10;99.90
14097;DHT22;7125;48.106;11.544;2022-10-16T00:46:17;11.10;99.90
14097;DHT22;7125;48.106;11.544;2022-10-16T00:48:50;11.00;99.90
14097;DHT22;7125;48.106;11.544;2022-10-16T00:51:20;11.00;99.90
14097;DHT22;7125;48.106;11.544;2022-10-16T00:53:48;11.00;99.90
14097;DHT22;7125;48.106;11.544;2022-10-16T00:56:16;11.00;99.90
14097;DHT22;7125;48.106;11.544;2022-10-16T00:58:43;11.00;99.90
14097;DHT22;7125;48.106;11.544;2022-10-16T01:01:10;11.00;99.90
14097;DHT22;7125;48.106;11.544;2022-10-16T01:03:37;10.90;99.90
14097;DHT22;7125;48.106;11.544;2022-10-16T01:06:12;11.00;99.90
14097;DHT22;7125;48.106;11.544;2022-10-16T01:08:49;11.00;99.90
14097;DHT22;7125;48.106;11.544;2022-10-16T01:11:24;11.00;99.90
14097;DHT22;7125;48.106;11.544;2022-10-16T01:13:55;11.00;99.90
14097;DHT22;7125;48.106;11.544;2022-10-16T01:16:29;11.00;99.90
14097;DHT22;7125;48.106;11.544;2022-10-16T01:19:08;11.00;99.90
14097;DHT22;7125;48.106;11.544;2022-10-16T01:21:40;11.00;99.90
14097;DHT22;7125;48.106;11.544;2022-10-16T01:24:11;11.00;99.90
14097;DHT22;7125;48.106;11.544;2022-10-16T01:27:00;11.00;99.90
14097;DHT22;7125;48.106;11.544;2022-10-16T01:29:32;11.00;99.90
14097;DHT22;7125;48.106;11.544;2022-10-16T01:32:11;11.00;99.90
14097;DHT22;7125;48.106;11.544;2022-10-16T01:34:47;11.00;99.90
14097;DHT22;7125;48.106;11.544;2022-10-16T01:37:17;11.00;99.90
14097;DHT22;7125;48.106;11.544;2022-10-16T01:39:47;11.00;99.90
14097;DHT22;7125;48.106;11.544;2022-10-16T01:42:20;11.00;99.90
14097;DHT22;7125;48.106;11.544;2022-10-16T01:44:49;11.00;99.90
14097;DHT22;7125;48.106;11.544;2022-10-16T01:47:17;11.00;99.90
14097;DHT22;7125;48.106;11.544;2022-10-16T01:49:46;11.00;99.90
14097;DHT22;7125;48.106;11.544;2022-10-16T01:52:16;10.90;99.90
14097;DHT22;7125;48.106;11.544;2022-10-16T01:54:46;10.90;99.90
14097;DHT22;7125;48.106;11.544;2022-10-16T01:57:14;10.90;99.90
14097;DHT22;7125;48.106;11.544;2022-10-16T01:59:46;10.90;99.90
14097;DHT22;7125;48.106;11.544;2022-10-16T02:02:15;10.90;99.90
14097;DHT22;7125;48.106;11.544;2022-10-16T02:04:46;10.90;99.90
14097;DHT22;7125;48.106;11.544;2022-10-16T02:07:14;10.90;99.90
14097;DHT22;7125;48.106;11.544;2022-10-16T02:09:41;10.90;99.90
14097;DHT22;7125;48.106;11.544;2022-10-16T02:12:10;10.90;99.90
14097;DHT22;7125;48.106;11.544;2022-10-16T02:14:40;10.90;99.90
14097;DHT22;7125;48.106;11.544;2022-10-16T02:17:12;10.90;99.90
14097;DHT22;7125;48.106;11.544;2022-10-16T02:19:41;10.90;99.90
14097;DHT22;7125;48.106;11.544;2022-10-16T02:22:10;10.90;99.90
14097;DHT22;7125;48.106;11.544;2022-10-16T02:24:50;10.90;99.90
14097;DHT22;7125;48.106;11.544;2022-10-16T02:27:23;10.80;99.90
14097;DHT22;7125;48.106;11.544;2022-10-16T02:29:55;10.80;99.90
14097;DHT22;7125;48.106;11.544;2022-10-16T02:32:30;10.90;99.90
14097;DHT22;7125;48.106;11.544;2022-10-16T02:34:58;10.90;99.90
14097;DHT22;7125;48.106;11.544;2022-10-16T02:37:26;10.90;99.90
14097;DHT22;7125;48.106;11.544;2022-10-16T02:39:55;11.00;99.90
14097;DHT22;7125;48.106;11.544;2022-10-16T02:42:28;11.00;99.90
14097;DHT22;7125;48.106;11.544;2022-10-16T02:44:55;11.10;99.90
14097;DHT22;7125;48.106;11.544;2022-10-16T02:47:22;11.10;99.90
14097;DHT22;7125;48.106;11.544;2022-10-16T02:49:50;11.20;99.90
14097;DHT22;7125;48.106;11.544;2022-10-16T02:52:17;11.20;99.90
14097;DHT22;7125;48.106;11.544;2022-10-16T02:54:44;11.20;99.90
14097;DHT22;7125;48.106;11.544;2022-10-16T02:57:10;11.20;99.90
14097;DHT22;7125;48.106;11.544;2022-10-16T02:59:38;11.20;99.90
14097;DHT22;7125;48.106;11.544;2022-10-16T03:02:05;11.20;99.90
14097;DHT22;7125;48.106;11.544;2022-10-16T03:04:32;11.10;99.90
14097;DHT22;7125;48.106;11.544;2022-10-16T03:07:00;11.10;99.90
14097;DHT22;7125;48.106;11.544;2022-10-16T03:09:27;11.10;99.90
14097;DHT22;7125;48.106;11.544;2022-10-16T03:11:54;11.00;99.90
14097;DHT22;7125;48.106;11.544;2022-10-16T03:14:21;11.00;99.90
14097;DHT22;7125;48.106;11.544;2022-10-16T03:16:48;11.00;99.90
14097;DHT22;7125;48.106;11.544;2022-10-16T03:19:16;11.00;99.90
14097;DHT22;7125;48.106;11.544;2022-10-16T03:21:43;11.00;99.90
14097;DHT22;7125;48.106;11.544;2022-10-16T03:24:11;11.00;99.90
14097;DHT22;7125;48.106;11.544;2022-10-16T03:26:38;11.00;99.90
14097;DHT22;7125;48.106;11.544;2022-10-16T03:29:05;11.00;99.90
14097;DHT22;7125;48.106;11.544;2022-10-16T03:31:32;10.90;99.90
14097;DHT22;7125;48.106;11.544;2022-10-16T03:33:59;10.90;99.90
14097;DHT22;7125;48.106;11.544;2022-10-16T03:36:26;10.90;99.90
14097;DHT22;7125;48.106;11.544;2022-10-16T03:38:53;10.80;99.90
14097;DHT22;7125;48.106;11.544;2022-10-16T03:41:22;10.90;99.90
14097;DHT22;7125;48.106;11.544;2022-10-16T03:43:49;10.90;99.90
14097;DHT22;7125;48.106;11.544;2022-10-16T03:46:15;11.00;99.90
14097;DHT22;7125;48.106;11.544;2022-10-16T03:48:42;11.00;99.90
14097;DHT22;7125;48.106;11.544;2022-10-16T03:51:09;11.00;99.90
14097;DHT22;7125;48.106;11.544;2022-10-16T03:53:36;11.10;99.90
14097;DHT22;7125;48.106;11.544;2022-10-16T03:56:03;11.20;99.90
14097;DHT22;7125;48.106;11.544;2022-10-16T03:58:31;11.20;99.90
14097;DHT22;7125;48.106;11.544;2022-10-16T04:00:58;11.30;99.90
14097;DHT22;7125;48.106;11.544;2022-10-16T04:03:25;11.30;99.90
14097;DHT22;7125;48.106;11.544;2022-10-16T04:05:52;11.40;99.90
14097;DHT22;7125;48.106;11.544;2022-10-16T04:08:19;11.50;99.90
14097;DHT22;7125;48.106;11.544;2022-10-16T04:10:46;11.60;99.90
14097;DHT22;7125;48.106;11.544;2022-10-16T04:13:13;11.60;99.90
14097;DHT22;7125;48.106;11.544;2022-10-16T04:15:41;11.60;99.90
14097;DHT22;7125;48.106;11.544;2022-10-16T04:18:08;11.70;99.90
14097;DHT22;7125;48.106;11.544;2022-10-16T04:20:35;11.70;99.90
14097;DHT22;7125;48.106;11.544;2022-10-16T04:23:02;11.80;99.90
14097;DHT22;7125;48.106;11.544;2022-10-16T04:25:29;11.80;99.90
14097;DHT22;7125;48.106;11.544;2022-10-16T04:27:56;11.80;99.90
14097;DHT22;7125;48.106;11.544;2022-10-16T04:30:24;11.90;99.90
14097;DHT22;7125;48.106;11.544;2022-10-16T04:32:53;11.90;99.90
14097;DHT22;7125;48.106;11.544;2022-10-16T04:35:21;11.90;99.90
14097;DHT22;7125;48.106;11.544;2022-10-16T04:37:48;11.90;99.90
14097;DHT22;7125;48.106;11.544;2022-10-16T04:40:16;11.90;99.90
14097;DHT22;7125;48.106;11.544;2022-10-16T04:42:43;11.90;99.90
14097;DHT22;7125;48.106;11.544;2022-10-16T04:45:10;12.00;99.90
14097;DHT22;7125;48.106;11.544;2022-10-16T04:47:37;12.00;99.90
14097;DHT22;7125;48.106;11.544;2022-10-16T04:50:06;12.00;99.90
14097;DHT22;7125;48.106;11.544;2022-10-16T04:52:33;12.00;99.90
14097;DHT22;7125;48.106;11.544;2022-10-16T04:55:00;12.00;99.90
14097;DHT22;7125;48.106;11.544;2022-10-16T04:57:28;12.00;99.90
14097;DHT22;7125;48.106;11.544;2022-10-16T04:59:56;12.00;99.90
14097;DHT22;7125;48.106;11.544;2022-10-16T05:02:23;12.00;99.90
14097;DHT22;7125;48.106;11.544;2022-10-16T05:04:50;12.00;99.90
14097;DHT22;7125;48.106;11.544;2022-10-16T05:07:18;12.00;99.90
14097;DHT22;7125;48.106;11.544;2022-10-16T05:09:45;12.00;99.90
14097;DHT22;7125;48.106;11.544;2022-10-16T05:12:12;12.00;99.90
14097;DHT22;7125;48.106;11.544;2022-10-16T05:14:39;12.10;99.90
14097;DHT22;7125;48.106;11.544;2022-10-16T05:17:06;12.00;99.90
14097;DHT22;7125;48.106;11.544;2022-10-16T05:19:33;12.00;99.90
14097;DHT22;7125;48.106;11.544;2022-10-16T05:22:00;12.10;99.90
14097;DHT22;7125;48.106;11.544;2022-10-16T05:24:28;12.10;99.90
14097;DHT22;7125;48.106;11.544;2022-10-16T05:26:55;12.00;99.90
14097;DHT22;7125;48.106;11.544;2022-10-16T05:29:22;12.10;99.90
14097;DHT22;7125;48.106;11.544;2022-10-16T05:31:51;12.00;99.90
14097;DHT22;7125;48.106;11.544;2022-10-16T05:34:18;12.10;99.90
14097;DHT22;7125;48.106;11.544;2022-10-16T05:36:46;12.00;99.90
14097;DHT22;7125;48.106;11.544;2022-10-16T05:39:14;12.00;99.90
14097;DHT22;7125;48.106;11.544;2022-10-16T05:41:43;12.00;99.90
14097;DHT22;7125;48.106;11.544;2022-10-16T05:44:10;12.10;99.90
14097;DHT22;7125;48.106;11.544;2022-10-16T05:46:37;12.10;99.90
14097;DHT22;7125;48.106;11.544;2022-10-16T05:49:04;12.00;99.90
14097;DHT22;7125;48.106;11.544;2022-10-16T05:51:30;12.00;99.90
14097;DHT22;7125;48.106;11.544;2022-10-16T05:53:57;12.00;99.90
14097;DHT22;7125;48.106;11.544;2022-10-16T05:56:24;12.00;99.90
14097;DHT22;7125;48.106;11.544;2022-10-16T05:58:53;12.00;99.90
14097;DHT22;7125;48.106;11.544;2022-10-16T06:01:20;12.00;99.90
14097;DHT22;7125;48.106;11.544;2022-10-16T06:03:50;12.00;99.90
14097;DHT22;7125;48.106;11.544;2022-10-16T06:06:21;12.00;99.90
14097;DHT22;7125;48.106;11.544;2022-10-16T06:08:49;11.90;99.90
14097;DHT22;7125;48.106;11.544;2022-10-16T06:11:17;11.90;99.90
14097;DHT22;7125;48.106;11.544;2022-10-16T06:13:45;11.90;99.90
14097;DHT22;7125;48.106;11.544;2022-10-16T06:16:16;11.90;99.90
14097;DHT22;7125;48.106;11.544;2022-10-16T06:18:43;11.90;99.90
14097;DHT22;7125;48.106;11.544;2022-10-16T06:21:12;11.90;99.90
14097;DHT22;7125;48.106;11.544;2022-10-16T06:23:40;11.90;99.90
14097;DHT22;7125;48.106;11.544;2022-10-16T06:26:08;11.90;99.90
14097;DHT22;7125;48.106;11.544;2022-10-16T06:28:35;12.00;99.90
14097;DHT22;7125;48.106;11.544;2022-10-16T06:31:04;12.00;99.90
14097;DHT22;7125;48.106;11.544;2022-10-16T06:33:33;12.00;99.90
14097;DHT22;7125;48.106;11.544;2022-10-16T06:36:00;12.00;99.90
14097;DHT22;7125;48.106;11.544;2022-10-16T06:38:28;12.10;99.90
14097;DHT22;7125;48.106;11.544;2022-10-16T06:40:55;12.10;99.90
14097;DHT22;7125;48.106;11.544;2022-10-16T06:43:21;12.10;99.90
14097;DHT22;7125;48.106;11.544;2022-10-16T06:45:51;12.10;99.90
14097;DHT22;7125;48.106;11.544;2022-10-16T06:48:18;12.10;99.90
14097;DHT22;7125;48.106;11.544;2022-10-16T06:50:56;12.10;99.90
14097;DHT22;7125;48.106;11.544;2022-10-16T06:53:24;12.10;99.90
14097;DHT22;7125;48.106;11.544;2022-10-16T06:55:51;12.10;99.90
14097;DHT22;7125;48.106;11.544;2022-10-16T06:58:19;12.10;99.90
14097;DHT22;7125;48.106;11.544;2022-10-16T07:00:46;12.20;99.90
14097;DHT22;7125;48.106;11.544;2022-10-16T07:03:15;12.20;99.90
14097;DHT22;7125;48.106;11.544;2022-10-16T07:05:43;12.20;99.90
14097;DHT22;7125;48.106;11.544;2022-10-16T07:08:11;12.20;99.90
14097;DHT22;7125;48.106;11.544;2022-10-16T07:10:38;12.20;99.90
14097;DHT22;7125;48.106;11.544;2022-10-16T07:13:05;12.20;99.90
14097;DHT22;7125;48.106;11.544;2022-10-16T07:15:33;12.20;99.90
14097;DHT22;7125;48.106;11.544;2022-10-16T07:18:00;12.20;99.90
14097;DHT22;7125;48.106;11.544;2022-10-16T07:20:27;12.30;99.90
14097;DHT22;7125;48.106;11.544;2022-10-16T07:22:54;12.30;99.90
14097;DHT22;7125;48.106;11.544;2022-10-16T07:25:23;12.40;99.90
14097;DHT22;7125;48.106;11.544;2022-10-16T07:27:49;12.50;99.90
14097;DHT22;7125;48.106;11.544;2022-10-16T07:30:17;12.60;99.90
14097;DHT22;7125;48.106;11.544;2022-10-16T07:32:44;12.70;99.90
14097;DHT22;7125;48.106;11.544;2022-10-16T07:35:11;12.80;99.90
14097;DHT22;7125;48.106;11.544;2022-10-16T07:37:38;12.90;99.90
14097;DHT22;7125;48.106;11.544;2022-10-16T07:40:06;13.00;99.90
14097;DHT22;7125;48.106;11.544;2022-10-16T07:42:36;13.10;99.90
14097;DHT22;7125;48.106;11.544;2022-10-16T07:45:04;13.20;99.90
14097;DHT22;7125;48.106;11.544;2022-10-16T07:47:31;13.30;99.90
14097;DHT22;7125;48.106;11.544;2022-10-16T07:49:58;13.40;99.90
14097;DHT22;7125;48.106;11.544;2022-10-16T07:52:25;13.50;99.90
14097;DHT22;7125;48.106;11.544;2022-10-16T07:54:52;13.70;99.90
14097;DHT22;7125;48.106;11.544;2022-10-16T07:57:19;13.80;99.90
14097;DHT22;7125;48.106;11.544;2022-10-16T07:59:47;13.90;99.90
14097;DHT22;7125;48.106;11.544;2022-10-16T08:02:14;13.90;99.90
14097;DHT22;7125;48.106;11.544;2022-10-16T08:04:41;14.00;99.90
14097;DHT22;7125;48.106;11.544;2022-10-16T08:07:08;14.10;99.90
14097;DHT22;7125;48.106;11.544;2022-10-16T08:09:35;14.20;99.90
14097;DHT22;7125;48.106;11.544;2022-10-16T08:12:02;14.30;99.90
14097;DHT22;7125;48.106;11.544;2022-10-16T08:14:29;14.40;99.90
14097;DHT22;7125;48.106;11.544;2022-10-16T08:16:57;14.50;99.90
14097;DHT22;7125;48.106;11.544;2022-10-16T08:19:24;14.70;99.90
14097;DHT22;7125;48.106;11.544;2022-10-16T08:21:52;14.80;99.90
14097;DHT22;7125;48.106;11.544;2022-10-16T08:24:19;14.90;99.90
14097;DHT22;7125;48.106;11.544;2022-10-16T08:26:45;15.00;99.90
14097;DHT22;7125;48.106;11.544;2022-10-16T08:29:13;15.30;99.90
14097;DHT22;7125;48.106;11.544;2022-10-16T08:31:40;15.60;99.90
14097;DHT22;7125;48.106;11.544;2022-10-16T08:34:08;15.70;99.90
14097;DHT22;7125;48.106;11.544;2022-10-16T08:36:38;15.80;99.90
14097;DHT22;7125;48.106;11.544;2022-10-16T08:39:05;15.90;99.90
14097;DHT22;7125;48.106;11.544;2022-10-16T08:41:56;16.00;99.90
14097;DHT22;7125;48.106;11.544;2022-10-16T08:44:42;16.10;99.90
14097;DHT22;7125;48.106;11.544;2022-10-16T08:47:17;16.20;99.90
14097;DHT22;7125;48.106;11.544;2022-10-16T08:49:56;16.30;99.90
14097;DHT22;7125;48.106;11.544;2022-10-16T08:52:28;16.40;99.90
14097;DHT22;7125;48.106;11.544;2022-10-16T08:54:56;16.60;99.90
14097;DHT22;7125;48.106;11.544;2022-10-16T08:57:25;16.70;99.90
14097;DHT22;7125;48.106;11.544;2022-10-16T08:59:53;16.90;99.90
14097;DHT22;7125;48.106;11.544;2022-10-16T09:02:31;17.10;99.90
14097;DHT22;7125;48.106;11.544;2022-10-16T09:05:24;17.20;99.90
14097;DHT22;7125;48.106;11.544;2022-10-16T09:08:03;17.30;99.90
14097;DHT22;7125;48.106;11.544;2022-10-16T09:10:41;17.40;99.90
14097;DHT22;7125;48.106;11.544;2022-10-16T09:13:19;17.50;99.90
14097;DHT22;7125;48.106;11.544;2022-10-16T09:15:50;17.60;99.90
14097;DHT22;7125;48.106;11.544;2022-10-16T09:18:25;17.70;99.90
14097;DHT22;7125;48.106;11.544;2022-10-16T09:21:00;17.90;99.90
14097;DHT22;7125;48.106;11.544;2022-10-16T09:23:29;17.90;99.90
14097;DHT22;7125;48.106;11.544;2022-10-16T09:25:58;18.00;99.90
14097;DHT22;7125;48.106;11.544;2022-10-16T09:28:25;18.20;99.90
14097;DHT22;7125;48.106;11.544;2022-10-16T09:30:52;18.40;99.90
14097;DHT22;7125;48.106;11.544;2022-10-16T09:33:22;18.60;99.90
14097;DHT22;7125;48.106;11.544;2022-10-16T09:35:51;18.70;99.90
14097;DHT22;7125;48.106;11.544;2022-10-16T09:38:25;18.80;99.90
14097;DHT22;7125;48.106;11.544;2022-10-16T09:40:53;18.90;99.90
14097;DHT22;7125;48.106;11.544;2022-10-16T09:43:23;18.90;99.90
14097;DHT22;7125;48.106;11.544;2022-10-16T09:45:57;18.90;99.90
14097;DHT22;7125;48.106;11.544;2022-10-16T09:48:27;19.00;99.90
14097;DHT22;7125;48.106;11.544;2022-10-16T09:50:59;19.10;99.90
14097;DHT22;7125;48.106;11.544;2022-10-16T09:53:38;19.10;99.90
14097;DHT22;7125;48.106;11.544;2022-10-16T09:56:06;19.20;99.90
14097;DHT22;7125;48.106;11.544;2022-10-16T09:58:33;19.30;99.90
14097;DHT22;7125;48.106;11.544;2022-10-16T10:01:00;19.40;99.90
14097;DHT22;7125;48.106;11.544;2022-10-16T10:03:34;19.60;99.90
14097;DHT22;7125;48.106;11.544;2022-10-16T10:06:06;19.70;99.90
14097;DHT22;7125;48.106;11.544;2022-10-16T10:08:35;19.90;99.90
14097;DHT22;7125;48.106;11.544;2022-10-16T10:11:02;20.00;99.90
14097;DHT22;7125;48.106;11.544;2022-10-16T10:13:30;20.00;99.90
14097;DHT22;7125;48.106;11.544;2022-10-16T10:15:57;20.00;99.90
14097;DHT22;7125;48.106;11.544;2022-10-16T10:18:24;20.00;99.90
14097;DHT22;7125;48.106;11.544;2022-10-16T10:20:58;20.00;99.90
14097;DHT22;7125;48.106;11.544;2022-10-16T10:23:27;20.00;99.90
14097;DHT22;7125;48.106;11.544;2022-10-16T10:26:01;20.00;99.90
14097;DHT22;7125;48.106;11.544;2022-10-16T10:28:58;20.00;99.90
14097;DHT22;7125;48.106;11.544;2022-10-16T10:31:31;20.00;99.90
14097;DHT22;7125;48.106;11.544;2022-10-16T10:34:09;20.00;99.90
14097;DHT22;7125;48.106;11.544;2022-10-16T10:36:41;20.10;99.90
14097;DHT22;7125;48.106;11.544;2022-10-16T10:39:11;20.10;99.90
14097;DHT22;7125;48.106;11.544;2022-10-16T10:44:54;20.30;99.90
14097;DHT22;7125;48.106;11.544;2022-10-16T10:47:38;20.40;99.90
14097;DHT22;7125;48.106;11.544;2022-10-16T10:50:14;20.60;99.90
14097;DHT22;7125;48.106;11.544;2022-10-16T10:52:58;20.70;99.90
14097;DHT22;7125;48.106;11.544;2022-10-16T10:55:33;20.80;99.90
14097;DHT22;7125;48.106;11.544;2022-10-16T10:58:20;20.80;99.90
14097;DHT22;7125;48.106;11.544;2022-10-16T11:00:57;20.90;99.90
14097;DHT22;7125;48.106;11.544;2022-10-16T11:03:35;21.00;99.90
14097;DHT22;7125;48.106;11.544;2022-10-16T11:06:12;21.10;99.90
14097;DHT22;7125;48.106;11.544;2022-10-16T11:08:45;21.10;99.90
14097;DHT22;7125;48.106;11.544;2022-10-16T11:11:17;21.10;99.90
14097;DHT22;7125;48.106;11.544;2022-10-16T11:13:54;21.20;99.90
14097;DHT22;7125;48.106;11.544;2022-10-16T11:16:27;21.20;99.90
14097;DHT22;7125;48.106;11.544;2022-10-16T11:18:59;21.20;99.90
14097;DHT22;7125;48.106;11.544;2022-10-16T11:21:33;21.20;99.90
14097;DHT22;7125;48.106;11.544;2022-10-16T11:24:09;21.20;99.90
14097;DHT22;7125;48.106;11.544;2022-10-16T11:26:41;21.20;99.90
14097;DHT22;7125;48.106;11.544;2022-10-16T11:29:15;21.30;99.90
14097;DHT22;7125;48.106;11.544;2022-10-16T11:31:47;21.40;99.90
14097;DHT22;7125;48.106;11.544;2022-10-16T11:34:22;21.50;99.90
14097;DHT22;7125;48.106;11.544;2022-10-16T11:36:55;21.50;98.70
14097;DHT22;7125;48.106;11.544;2022-10-16T11:39:25;21.60;98.70
14097;DHT22;7125;48.106;11.544;2022-10-16T11:41:55;21.60;97.00
14097;DHT22;7125;48.106;11.544;2022-10-16T11:44:34;21.60;97.90
14097;DHT22;7125;48.106;11.544;2022-10-16T11:47:10;21.60;98.30
14097;DHT22;7125;48.106;11.544;2022-10-16T11:49:40;21.70;96.60
14097;DHT22;7125;48.106;11.544;2022-10-16T11:52:14;21.60;95.80
14097;DHT22;7125;48.106;11.544;2022-10-16T11:54:47;21.70;96.30
14097;DHT22;7125;48.106;11.544;2022-10-16T11:57:19;21.70;96.20
14097;DHT22;7125;48.106;11.544;2022-10-16T11:59:53;21.70;95.90
14097;DHT22;7125;48.106;11.544;2022-10-16T12:02:48;21.80;94.80
14097;DHT22;7125;48.106;11.544;2022-10-16T12:05:25;21.90;95.10
14097;DHT22;7125;48.106;11.544;2022-10-16T12:08:04;21.90;94.80
14097;DHT22;7125;48.106;11.544;2022-10-16T12:10:33;21.90;95.10
14097;DHT22;7125;48.106;11.544;2022-10-16T12:13:03;21.90;95.10
14097;DHT22;7125;48.106;11.544;2022-10-16T12:15:34;21.90;94.70
14097;DHT22;7125;48.106;11.544;2022-10-16T12:18:01;22.00;93.50
14097;DHT22;7125;48.106;11.544;2022-10-16T12:20:30;22.00;93.30
14097;DHT22;7125;48.106;11.544;2022-10-16T12:23:00;22.10;93.10
14097;DHT22;7125;48.106;11.544;2022-10-16T12:25:31;22.00;93.80
14097;DHT22;7125;48.106;11.544;2022-10-16T12:28:00;22.00;94.20
14097;DHT22;7125;48.106;11.544;2022-10-16T12:30:30;22.00;94.10
14097;DHT22;7125;48.106;11.544;2022-10-16T12:33:00;22.10;92.60
14097;DHT22;7125;48.106;11.544;2022-10-16T12:35:30;22.10;93.00
14097;DHT22;7125;48.106;11.544;2022-10-16T12:38:14;22.10;93.10
14097;DHT22;7125;48.106;11.544;2022-10-16T12:40:43;22.10;93.20
14097;DHT22;7125;48.106;11.544;2022-10-16T12:43:23;22.10;93.40
14097;DHT22;7125;48.106;11.544;2022-10-16T12:46:00;22.20;93.40
14097;DHT22;7125;48.106;11.544;2022-10-16T12:48:29;22.30;93.10
14097;DHT22;7125;48.106;11.544;2022-10-16T12:50:56;22.40;93.50
14097;DHT22;7125;48.106;11.544;2022-10-16T12:53:25;22.40;93.20
14097;DHT22;7125;48.106;11.544;2022-10-16T12:56:01;22.50;92.10
14097;DHT22;7125;48.106;11.544;2022-10-16T12:58:51;22.60;93.00
14097;DHT22;7125;48.106;11.544;2022-10-16T13:01:33;22.60;92.20
14097;DHT22;7125;48.106;11.544;2022-10-16T13:04:20;22.80;92.40
14097;DHT22;7125;48.106;11.544;2022-10-16T13:06:53;22.90;91.90
14097;DHT22;7125;48.106;11.544;2022-10-16T13:09:42;23.00;91.70
14097;DHT22;7125;48.106;11.544;2022-10-16T13:12:30;23.20;91.70
14097;DHT22;7125;48.106;11.544;2022-10-16T13:18:00;23.40;92.10
14097;DHT22;7125;48.106;11.544;2022-10-16T13:20:34;23.50;92.30
14097;DHT22;7125;48.106;11.544;2022-10-16T13:23:09;23.60;91.60
14097;DHT22;7125;48.106;11.544;2022-10-16T13:25:50;23.60;91.30
14097;DHT22;7125;48.106;11.544;2022-10-16T13:28:22;23.70;92.10
14097;DHT22;7125;48.106;11.544;2022-10-16T13:30:55;23.80;92.30
14097;DHT22;7125;48.106;11.544;2022-10-16T13:33:30;23.80;91.70
14097;DHT22;7125;48.106;11.544;2022-10-16T13:36:00;23.80;92.30
14097;DHT22;7125;48.106;11.544;2022-10-16T13:38:28;23.80;92.10
14097;DHT22;7125;48.106;11.544;2022-10-16T13:40:57;23.80;90.60
14097;DHT22;7125;48.106;11.544;2022-10-16T13:43:28;23.90;90.10
14097;DHT22;7125;48.106;11.544;2022-10-16T13:45:58;23.80;91.10
14097;DHT22;7125;48.106;11.544;2022-10-16T13:48:25;23.80;91.80
14097;DHT22;7125;48.106;11.544;2022-10-16T13:51:15;23.80;93.40
14097;DHT22;7125;48.106;11.544;2022-10-16T13:53:42;23.60;93.40
14097;DHT22;7125;48.106;11.544;2022-10-16T13:56:12;23.60;94.70
14097;DHT22;7125;48.106;11.544;2022-10-16T13:58:40;23.40;92.60
14097;DHT22;7125;48.106;11.544;2022-10-16T14:01:16;23.30;92.50
14097;DHT22;7125;48.106;11.544;2022-10-16T14:03:45;23.30;89.00
14097;DHT22;7125;48.106;11.544;2022-10-16T14:06:17;23.40;89.20
14097;DHT22;7125;48.106;11.544;2022-10-16T14:08:50;23.40;90.60
14097;DHT22;7125;48.106;11.544;2022-10-16T14:11:22;23.50;91.20
14097;DHT22;7125;48.106;11.544;2022-10-16T14:13:50;23.50;90.50
14097;DHT22;7125;48.106;11.544;2022-10-16T14:16:19;23.40;91.40
14097;DHT22;7125;48.106;11.544;2022-10-16T14:18:52;23.40;91.40
14097;DHT22;7125;48.106;11.544;2022-10-16T14:21:23;23.30;92.80
14097;DHT22;7125;48.106;11.544;2022-10-16T14:23:52;23.10;93.30
14097;DHT22;7125;48.106;11.544;2022-10-16T14:26:21;23.00;94.40
14097;DHT22;7125;48.106;11.544;2022-10-16T14:29:01;22.80;94.90
14097;DHT22;7125;48.106;11.544;2022-10-16T14:31:31;22.60;95.80
14097;DHT22;7125;48.106;11.544;2022-10-16T14:33:59;22.40;96.50
14097;DHT22;7125;48.106;11.544;2022-10-16T14:36:28;22.30;97.10
14097;DHT22;7125;48.106;11.544;2022-10-16T14:39:02;22.10;98.10
14097;DHT22;7125;48.106;11.544;2022-10-16T14:41:30;21.90;98.80
14097;DHT22;7125;48.106;11.544;2022-10-16T14:44:01;21.70;98.60
14097;DHT22;7125;48.106;11.544;2022-10-16T14:46:32;21.50;99.40
14097;DHT22;7125;48.106;11.544;2022-10-16T14:49:03;21.40;99.50
14097;DHT22;7125;48.106;11.544;2022-10-16T14:51:32;21.10;99.40
14097;DHT22;7125;48.106;11.544;2022-10-16T14:54:00;21.00;99.90
14097;DHT22;7125;48.106;11.544;2022-10-16T14:56:30;20.80;99.90
14097;DHT22;7125;48.106;11.544;2022-10-16T14:58:58;20.60;99.90
14097;DHT22;7125;48.106;11.544;2022-10-16T15:01:25;20.40;99.90
14097;DHT22;7125;48.106;11.544;2022-10-16T15:03:52;20.20;99.90
14097;DHT22;7125;48.106;11.544;2022-10-16T15:06:20;20.10;99.90
14097;DHT22;7125;48.106;11.544;2022-10-16T15:08:48;19.90;99.90
14097;DHT22;7125;48.106;11.544;2022-10-16T15:11:17;19.70;99.90
14097;DHT22;7125;48.106;11.544;2022-10-16T15:13:44;19.60;99.90
14097;DHT22;7125;48.106;11.544;2022-10-16T15:16:12;19.40;99.90
14097;DHT22;7125;48.106;11.544;2022-10-16T15:18:41;19.30;99.90
14097;DHT22;7125;48.106;11.544;2022-10-16T15:21:08;19.20;99.90
14097;DHT22;7125;48.106;11.544;2022-10-16T15:23:35;19.10;99.90
14097;DHT22;7125;48.106;11.544;2022-10-16T15:26:05;18.90;99.90
14097;DHT22;7125;48.106;11.544;2022-10-16T15:28:32;18.80;99.90
14097;DHT22;7125;48.106;11.544;2022-10-16T15:31:01;18.70;99.90
14097;DHT22;7125;48.106;11.544;2022-10-16T15:33:28;18.60;99.90
14097;DHT22;7125;48.106;11.544;2022-10-16T15:35:58;18.60;99.90
14097;DHT22;7125;48.106;11.544;2022-10-16T15:38:26;18.50;99.90
14097;DHT22;7125;48.106;11.544;2022-10-16T15:40:54;18.30;99.90
14097;DHT22;7125;48.106;11.544;2022-10-16T15:43:23;18.30;99.90
14097;DHT22;7125;48.106;11.544;2022-10-16T15:45:59;18.20;99.90
14097;DHT22;7125;48.106;11.544;2022-10-16T15:48:26;18.10;99.90
14097;DHT22;7125;48.106;11.544;2022-10-16T15:50:54;18.00;99.90
14097;DHT22;7125;48.106;11.544;2022-10-16T15:53:21;17.90;99.90
14097;DHT22;7125;48.106;11.544;2022-10-16T15:55:48;17.80;99.90